sensor_id;sensor_type;location;lat;lon;timestamp;P1;durP1;ratioP1;P2;durP2;ratioP2
45650;SDS011;31365;48.858;8.530;2022-09-27T00:01:10;0.20;;;0.20;;
45650;SDS011;31365;48.858;8.530;2022-09-27T00:03:42;1.23;;;0.20;;
45650;SDS011;31365;48.858;8.530;2022-09-27T00:06:12;0.53;;;0.20;;
45650;SDS011;31365;48.858;8.530;2022-09-27T00:08:46;0.20;;;0.10;;
45650;SDS011;31365;48.858;8.530;2022-09-27T00:11:17;0.20;;;0.20;;
45650;SDS011;31365;48.858;8.530;2022-09-27T00:13:53;0.07;;;0.07;;
45650;SDS011;31365;48.858;8.530;2022-09-27T00:16:23;0.20;;;0.17;;
45650;SDS011;31365;48.858;8.530;2022-09-27T00:18:56;0.63;;;0.23;;
45650;SDS011;31365;48.858;8.530;2022-09-27T00:21:28;0.73;;;0.20;;
45650;SDS011;31365;48.858;8.530;2022-09-27T00:23:58;0.20;;;0.20;;
45650;SDS011;31365;48.858;8.530;2022-09-27T00:26:26;0.30;;;0.30;;
45650;SDS011;31365;48.858;8.530;2022-09-27T00:28:55;0.30;;;0.30;;
45650;SDS011;31365;48.858;8.530;2022-09-27T00:31:25;0.60;;;0.50;;
45650;SDS011;31365;48.858;8.530;2022-09-27T00:33:56;0.40;;;0.40;;
45650;SDS011;31365;48.858;8.530;2022-09-27T00:36:28;0.20;;;0.20;;
45650;SDS011;31365;48.858;8.530;2022-09-27T00:38:59;0.53;;;0.30;;
45650;SDS011;31365;48.858;8.530;2022-09-27T00:41:29;1.30;;;0.47;;
45650;SDS011;31365;48.858;8.530;2022-09-27T00:44:01;0.40;;;0.40;;
45650;SDS011;31365;48.858;8.530;2022-09-27T00:46:53;0.90;;;0.50;;
45650;SDS011;31365;48.858;8.530;2022-09-27T00:49:29;0.53;;;0.47;;
45650;SDS011;31365;48.858;8.530;2022-09-27T00:52:06;1.50;;;0.30;;
45650;SDS011;31365;48.858;8.530;2022-09-27T00:54:44;1.27;;;0.47;;
45650;SDS011;31365;48.858;8.530;2022-09-27T00:57:18;0.40;;;0.40;;
45650;SDS011;31365;48.858;8.530;2022-09-27T00:59:50;2.00;;;0.50;;
45650;SDS011;31365;48.858;8.530;2022-09-27T01:02:26;0.50;;;0.30;;
45650;SDS011;31365;48.858;8.530;2022-09-27T01:04:56;2.23;;;0.77;;
45650;SDS011;31365;48.858;8.530;2022-09-27T01:07:27;2.10;;;0.60;;
45650;SDS011;31365;48.858;8.530;2022-09-27T01:09:56;1.97;;;0.53;;
45650;SDS011;31365;48.858;8.530;2022-09-27T01:12:27;0.87;;;0.63;;
45650;SDS011;31365;48.858;8.530;2022-09-27T01:15:11;1.63;;;0.50;;
45650;SDS011;31365;48.858;8.530;2022-09-27T01:17:56;2.73;;;0.90;;
45650;SDS011;31365;48.858;8.530;2022-09-27T01:20:57;1.50;;;0.53;;
45650;SDS011;31365;48.858;8.530;2022-09-27T01:23:54;0.60;;;0.40;;
45650;SDS011;31365;48.858;8.530;2022-09-27T01:29:53;0.60;;;0.53;;
45650;SDS011;31365;48.858;8.530;2022-09-27T01:32:47;2.40;;;0.70;;
45650;SDS011;31365;48.858;8.530;2022-09-27T01:35:30;0.20;;;0.20;;
45650;SDS011;31365;48.858;8.530;2022-09-27T01:38:10;4.67;;;0.80;;
45650;SDS011;31365;48.858;8.530;2022-09-27T01:40:49;1.13;;;0.30;;
45650;SDS011;31365;48.858;8.530;2022-09-27T01:43:46;2.13;;;0.70;;
45650;SDS011;31365;48.858;8.530;2022-09-27T01:46:28;2.50;;;0.57;;
45650;SDS011;31365;48.858;8.530;2022-09-27T01:49:18;0.97;;;0.80;;
45650;SDS011;31365;48.858;8.530;2022-09-27T01:51:54;0.97;;;0.50;;
45650;SDS011;31365;48.858;8.530;2022-09-27T01:54:29;2.40;;;0.80;;
45650;SDS011;31365;48.858;8.530;2022-09-27T01:57:25;1.60;;;0.97;;
45650;SDS011;31365;48.858;8.530;2022-09-27T02:00:19;2.07;;;1.00;;
45650;SDS011;31365;48.858;8.530;2022-09-27T02:02:50;2.83;;;1.20;;
45650;SDS011;31365;48.858;8.530;2022-09-27T02:05:31;1.83;;;0.90;;
45650;SDS011;31365;48.858;8.530;2022-09-27T02:08:22;3.00;;;1.20;;
45650;SDS011;31365;48.858;8.530;2022-09-27T02:11:04;2.53;;;1.30;;
45650;SDS011;31365;48.858;8.530;2022-09-27T02:13:43;4.57;;;1.23;;
45650;SDS011;31365;48.858;8.530;2022-09-27T02:16:47;5.93;;;1.20;;
45650;SDS011;31365;48.858;8.530;2022-09-27T02:19:29;3.30;;;1.10;;
45650;SDS011;31365;48.858;8.530;2022-09-27T02:22:10;4.03;;;1.40;;
45650;SDS011;31365;48.858;8.530;2022-09-27T02:24:47;5.10;;;1.70;;
45650;SDS011;31365;48.858;8.530;2022-09-27T02:27:27;2.40;;;1.30;;
45650;SDS011;31365;48.858;8.530;2022-09-27T02:30:09;5.87;;;1.50;;
45650;SDS011;31365;48.858;8.530;2022-09-27T02:32:43;5.97;;;1.17;;
45650;SDS011;31365;48.858;8.530;2022-09-27T02:35:14;3.47;;;1.50;;
45650;SDS011;31365;48.858;8.530;2022-09-27T02:37:48;3.60;;;1.60;;
45650;SDS011;31365;48.858;8.530;2022-09-27T02:40:18;3.13;;;1.50;;
45650;SDS011;31365;48.858;8.530;2022-09-27T02:42:46;6.23;;;2.33;;
45650;SDS011;31365;48.858;8.530;2022-09-27T02:45:16;5.83;;;1.50;;
45650;SDS011;31365;48.858;8.530;2022-09-27T02:47:56;2.80;;;1.50;;
45650;SDS011;31365;48.858;8.530;2022-09-27T02:50:45;3.77;;;1.50;;
45650;SDS011;31365;48.858;8.530;2022-09-27T02:53:44;3.93;;;2.10;;
45650;SDS011;31365;48.858;8.530;2022-09-27T02:56:47;6.97;;;2.17;;
45650;SDS011;31365;48.858;8.530;2022-09-27T02:59:53;6.20;;;2.07;;
45650;SDS011;31365;48.858;8.530;2022-09-27T03:02:54;7.97;;;2.40;;
45650;SDS011;31365;48.858;8.530;2022-09-27T03:05:42;9.17;;;2.77;;
45650;SDS011;31365;48.858;8.530;2022-09-27T03:08:19;3.23;;;1.63;;
45650;SDS011;31365;48.858;8.530;2022-09-27T03:10:48;4.27;;;2.00;;
45650;SDS011;31365;48.858;8.530;2022-09-27T03:13:17;5.80;;;2.27;;
45650;SDS011;31365;48.858;8.530;2022-09-27T03:15:45;7.73;;;2.37;;
45650;SDS011;31365;48.858;8.530;2022-09-27T03:18:17;5.63;;;1.97;;
45650;SDS011;31365;48.858;8.530;2022-09-27T03:20:46;5.80;;;2.10;;
45650;SDS011;31365;48.858;8.530;2022-09-27T03:23:17;6.70;;;2.20;;
45650;SDS011;31365;48.858;8.530;2022-09-27T03:25:47;6.53;;;2.13;;
45650;SDS011;31365;48.858;8.530;2022-09-27T03:28:15;4.73;;;2.27;;
45650;SDS011;31365;48.858;8.530;2022-09-27T03:30:44;6.57;;;2.27;;
45650;SDS011;31365;48.858;8.530;2022-09-27T03:33:33;5.77;;;1.93;;
45650;SDS011;31365;48.858;8.530;2022-09-27T03:36:08;3.73;;;2.03;;
45650;SDS011;31365;48.858;8.530;2022-09-27T03:38:37;7.20;;;2.10;;
45650;SDS011;31365;48.858;8.530;2022-09-27T03:41:09;10.10;;;2.77;;
45650;SDS011;31365;48.858;8.530;2022-09-27T03:43:38;5.03;;;2.10;;
45650;SDS011;31365;48.858;8.530;2022-09-27T03:46:06;6.83;;;2.33;;
45650;SDS011;31365;48.858;8.530;2022-09-27T03:48:34;7.33;;;2.33;;
45650;SDS011;31365;48.858;8.530;2022-09-27T03:51:03;4.60;;;1.80;;
45650;SDS011;31365;48.858;8.530;2022-09-27T03:53:33;6.80;;;2.13;;
45650;SDS011;31365;48.858;8.530;2022-09-27T03:56:02;4.60;;;2.00;;
45650;SDS011;31365;48.858;8.530;2022-09-27T03:58:32;5.93;;;2.17;;
45650;SDS011;31365;48.858;8.530;2022-09-27T04:01:00;3.93;;;2.20;;
45650;SDS011;31365;48.858;8.530;2022-09-27T04:03:31;4.30;;;2.07;;
45650;SDS011;31365;48.858;8.530;2022-09-27T04:06:39;3.27;;;1.83;;
45650;SDS011;31365;48.858;8.530;2022-09-27T04:09:08;3.33;;;1.50;;
45650;SDS011;31365;48.858;8.530;2022-09-27T04:11:54;4.10;;;2.10;;
45650;SDS011;31365;48.858;8.530;2022-09-27T04:14:23;4.27;;;1.90;;
45650;SDS011;31365;48.858;8.530;2022-09-27T04:17:11;5.23;;;1.80;;
45650;SDS011;31365;48.858;8.530;2022-09-27T04:19:56;5.50;;;1.70;;
45650;SDS011;31365;48.858;8.530;2022-09-27T04:22:25;4.13;;;1.63;;
45650;SDS011;31365;48.858;8.530;2022-09-27T04:24:54;3.17;;;1.57;;
45650;SDS011;31365;48.858;8.530;2022-09-27T04:27:32;3.00;;;1.63;;
45650;SDS011;31365;48.858;8.530;2022-09-27T04:30:01;6.20;;;1.80;;
45650;SDS011;31365;48.858;8.530;2022-09-27T04:32:57;5.03;;;1.90;;
45650;SDS011;31365;48.858;8.530;2022-09-27T04:35:46;4.80;;;1.90;;
45650;SDS011;31365;48.858;8.530;2022-09-27T04:38:30;2.43;;;1.50;;
45650;SDS011;31365;48.858;8.530;2022-09-27T04:41:00;4.90;;;1.97;;
45650;SDS011;31365;48.858;8.530;2022-09-27T04:43:33;9.30;;;2.43;;
45650;SDS011;31365;48.858;8.530;2022-09-27T04:46:02;6.53;;;2.00;;
45650;SDS011;31365;48.858;8.530;2022-09-27T04:48:31;1.97;;;1.70;;
45650;SDS011;31365;48.858;8.530;2022-09-27T04:51:00;3.73;;;1.60;;
45650;SDS011;31365;48.858;8.530;2022-09-27T04:53:30;3.70;;;1.60;;
45650;SDS011;31365;48.858;8.530;2022-09-27T04:56:00;3.80;;;1.87;;
45650;SDS011;31365;48.858;8.530;2022-09-27T04:58:32;6.00;;;2.03;;
45650;SDS011;31365;48.858;8.530;2022-09-27T05:01:01;3.60;;;1.67;;
45650;SDS011;31365;48.858;8.530;2022-09-27T05:03:50;2.33;;;1.40;;
45650;SDS011;31365;48.858;8.530;2022-09-27T05:06:18;5.30;;;1.73;;
45650;SDS011;31365;48.858;8.530;2022-09-27T05:08:46;4.67;;;1.90;;
45650;SDS011;31365;48.858;8.530;2022-09-27T05:11:19;3.63;;;1.40;;
45650;SDS011;31365;48.858;8.530;2022-09-27T05:14:16;2.30;;;1.27;;
45650;SDS011;31365;48.858;8.530;2022-09-27T05:17:00;4.10;;;1.43;;
45650;SDS011;31365;48.858;8.530;2022-09-27T05:19:48;1.60;;;1.00;;
45650;SDS011;31365;48.858;8.530;2022-09-27T05:22:46;5.57;;;1.40;;
45650;SDS011;31365;48.858;8.530;2022-09-27T05:25:15;2.93;;;1.80;;
45650;SDS011;31365;48.858;8.530;2022-09-27T05:27:45;1.53;;;0.80;;
45650;SDS011;31365;48.858;8.530;2022-09-27T05:30:14;0.90;;;0.77;;
45650;SDS011;31365;48.858;8.530;2022-09-27T05:32:46;1.17;;;1.07;;
45650;SDS011;31365;48.858;8.530;2022-09-27T05:35:50;1.07;;;0.77;;
45650;SDS011;31365;48.858;8.530;2022-09-27T05:38:22;1.50;;;1.20;;
45650;SDS011;31365;48.858;8.530;2022-09-27T05:40:55;3.13;;;1.50;;
45650;SDS011;31365;48.858;8.530;2022-09-27T05:43:25;1.53;;;1.10;;
45650;SDS011;31365;48.858;8.530;2022-09-27T05:45:55;2.53;;;1.10;;
45650;SDS011;31365;48.858;8.530;2022-09-27T05:48:24;1.13;;;0.87;;
45650;SDS011;31365;48.858;8.530;2022-09-27T05:51:02;2.13;;;1.13;;
45650;SDS011;31365;48.858;8.530;2022-09-27T05:53:33;2.87;;;1.20;;
45650;SDS011;31365;48.858;8.530;2022-09-27T05:56:04;2.60;;;1.20;;
45650;SDS011;31365;48.858;8.530;2022-09-27T05:58:54;3.20;;;1.33;;
45650;SDS011;31365;48.858;8.530;2022-09-27T06:01:26;1.30;;;0.80;;
45650;SDS011;31365;48.858;8.530;2022-09-27T06:04:13;1.00;;;0.77;;
45650;SDS011;31365;48.858;8.530;2022-09-27T06:06:47;1.50;;;0.80;;
45650;SDS011;31365;48.858;8.530;2022-09-27T06:09:16;2.33;;;1.17;;
45650;SDS011;31365;48.858;8.530;2022-09-27T06:11:46;0.93;;;0.80;;
45650;SDS011;31365;48.858;8.530;2022-09-27T06:14:17;1.60;;;1.00;;
45650;SDS011;31365;48.858;8.530;2022-09-27T06:16:54;2.47;;;1.07;;
45650;SDS011;31365;48.858;8.530;2022-09-27T06:19:26;2.20;;;0.90;;
45650;SDS011;31365;48.858;8.530;2022-09-27T06:21:55;1.20;;;1.00;;
45650;SDS011;31365;48.858;8.530;2022-09-27T06:24:30;0.63;;;0.63;;
45650;SDS011;31365;48.858;8.530;2022-09-27T06:27:04;0.73;;;0.63;;
45650;SDS011;31365;48.858;8.530;2022-09-27T06:29:44;0.57;;;0.57;;
45650;SDS011;31365;48.858;8.530;2022-09-27T06:32:25;1.50;;;0.73;;
45650;SDS011;31365;48.858;8.530;2022-09-27T06:35:00;0.70;;;0.70;;
45650;SDS011;31365;48.858;8.530;2022-09-27T06:37:30;0.70;;;0.67;;
45650;SDS011;31365;48.858;8.530;2022-09-27T06:39:59;3.17;;;2.30;;
45650;SDS011;31365;48.858;8.530;2022-09-27T06:43:00;2.13;;;1.50;;
45650;SDS011;31365;48.858;8.530;2022-09-27T06:46:10;1.30;;;0.87;;
45650;SDS011;31365;48.858;8.530;2022-09-27T06:48:57;1.00;;;0.83;;
45650;SDS011;31365;48.858;8.530;2022-09-27T06:51:25;1.20;;;0.90;;
45650;SDS011;31365;48.858;8.530;2022-09-27T06:53:54;1.80;;;0.77;;
45650;SDS011;31365;48.858;8.530;2022-09-27T06:56:23;1.93;;;1.00;;
45650;SDS011;31365;48.858;8.530;2022-09-27T06:58:52;1.67;;;0.90;;
45650;SDS011;31365;48.858;8.530;2022-09-27T07:01:42;2.67;;;1.17;;
45650;SDS011;31365;48.858;8.530;2022-09-27T07:04:26;2.37;;;1.87;;
45650;SDS011;31365;48.858;8.530;2022-09-27T07:07:09;2.73;;;1.60;;
45650;SDS011;31365;48.858;8.530;2022-09-27T07:09:39;2.47;;;1.60;;
45650;SDS011;31365;48.858;8.530;2022-09-27T07:12:10;3.07;;;1.37;;
45650;SDS011;31365;48.858;8.530;2022-09-27T07:14:39;2.10;;;1.40;;
45650;SDS011;31365;48.858;8.530;2022-09-27T07:17:15;1.50;;;1.40;;
45650;SDS011;31365;48.858;8.530;2022-09-27T07:19:45;2.40;;;1.93;;
45650;SDS011;31365;48.858;8.530;2022-09-27T07:22:13;1.90;;;1.00;;
45650;SDS011;31365;48.858;8.530;2022-09-27T07:24:45;1.37;;;1.00;;
45650;SDS011;31365;48.858;8.530;2022-09-27T07:27:14;1.57;;;1.47;;
45650;SDS011;31365;48.858;8.530;2022-09-27T07:29:43;0.90;;;0.90;;
45650;SDS011;31365;48.858;8.530;2022-09-27T07:32:12;2.20;;;0.93;;
45650;SDS011;31365;48.858;8.530;2022-09-27T07:34:42;1.60;;;0.70;;
45650;SDS011;31365;48.858;8.530;2022-09-27T07:37:11;2.30;;;0.80;;
45650;SDS011;31365;48.858;8.530;2022-09-27T07:39:39;2.77;;;1.00;;
45650;SDS011;31365;48.858;8.530;2022-09-27T07:42:07;2.40;;;1.10;;
45650;SDS011;31365;48.858;8.530;2022-09-27T07:44:40;3.17;;;1.33;;
45650;SDS011;31365;48.858;8.530;2022-09-27T07:47:34;1.90;;;1.20;;
45650;SDS011;31365;48.858;8.530;2022-09-27T07:50:21;4.43;;;3.33;;
45650;SDS011;31365;48.858;8.530;2022-09-27T07:52:54;4.17;;;3.57;;
45650;SDS011;31365;48.858;8.530;2022-09-27T07:55:41;3.70;;;3.30;;
45650;SDS011;31365;48.858;8.530;2022-09-27T07:58:13;2.47;;;1.90;;
45650;SDS011;31365;48.858;8.530;2022-09-27T08:00:42;2.20;;;2.00;;
45650;SDS011;31365;48.858;8.530;2022-09-27T08:03:11;2.43;;;1.93;;
45650;SDS011;31365;48.858;8.530;2022-09-27T08:05:45;4.30;;;1.40;;
45650;SDS011;31365;48.858;8.530;2022-09-27T08:08:15;3.10;;;1.50;;
45650;SDS011;31365;48.858;8.530;2022-09-27T08:10:46;3.87;;;1.53;;
45650;SDS011;31365;48.858;8.530;2022-09-27T08:13:15;2.93;;;1.37;;
45650;SDS011;31365;48.858;8.530;2022-09-27T08:15:49;2.20;;;1.03;;
45650;SDS011;31365;48.858;8.530;2022-09-27T08:18:19;2.97;;;1.20;;
45650;SDS011;31365;48.858;8.530;2022-09-27T08:20:56;1.37;;;1.20;;
45650;SDS011;31365;48.858;8.530;2022-09-27T08:23:40;1.43;;;1.07;;
45650;SDS011;31365;48.858;8.530;2022-09-27T08:26:13;1.30;;;1.20;;
45650;SDS011;31365;48.858;8.530;2022-09-27T08:28:54;2.13;;;1.30;;
45650;SDS011;31365;48.858;8.530;2022-09-27T08:31:25;2.63;;;1.00;;
45650;SDS011;31365;48.858;8.530;2022-09-27T08:33:54;3.53;;;1.40;;
45650;SDS011;31365;48.858;8.530;2022-09-27T08:36:25;3.47;;;3.17;;
45650;SDS011;31365;48.858;8.530;2022-09-27T08:38:54;2.50;;;1.43;;
45650;SDS011;31365;48.858;8.530;2022-09-27T08:41:32;1.73;;;1.30;;
45650;SDS011;31365;48.858;8.530;2022-09-27T08:44:06;2.37;;;1.30;;
45650;SDS011;31365;48.858;8.530;2022-09-27T08:46:57;3.17;;;1.30;;
45650;SDS011;31365;48.858;8.530;2022-09-27T08:49:37;1.70;;;1.50;;
45650;SDS011;31365;48.858;8.530;2022-09-27T08:52:15;1.93;;;1.50;;
45650;SDS011;31365;48.858;8.530;2022-09-27T08:54:49;3.67;;;2.00;;
45650;SDS011;31365;48.858;8.530;2022-09-27T08:57:19;4.20;;;2.53;;
45650;SDS011;31365;48.858;8.530;2022-09-27T08:59:53;2.57;;;2.30;;
45650;SDS011;31365;48.858;8.530;2022-09-27T09:02:30;3.77;;;1.80;;
45650;SDS011;31365;48.858;8.530;2022-09-27T09:04:59;10.00;;;1.97;;
45650;SDS011;31365;48.858;8.530;2022-09-27T09:07:44;3.27;;;2.00;;
45650;SDS011;31365;48.858;8.530;2022-09-27T09:10:39;2.73;;;1.30;;
45650;SDS011;31365;48.858;8.530;2022-09-27T09:16:59;3.27;;;1.53;;
45650;SDS011;31365;48.858;8.530;2022-09-27T09:20:02;2.87;;;1.60;;
45650;SDS011;31365;48.858;8.530;2022-09-27T09:22:59;3.40;;;1.77;;
45650;SDS011;31365;48.858;8.530;2022-09-27T09:25:52;4.43;;;1.57;;
45650;SDS011;31365;48.858;8.530;2022-09-27T09:28:35;1.30;;;1.20;;
45650;SDS011;31365;48.858;8.530;2022-09-27T09:31:24;4.00;;;1.57;;
45650;SDS011;31365;48.858;8.530;2022-09-27T09:34:08;1.37;;;0.97;;
45650;SDS011;31365;48.858;8.530;2022-09-27T09:36:46;4.10;;;1.57;;
45650;SDS011;31365;48.858;8.530;2022-09-27T09:39:25;2.30;;;1.30;;
45650;SDS011;31365;48.858;8.530;2022-09-27T09:42:06;2.27;;;1.40;;
45650;SDS011;31365;48.858;8.530;2022-09-27T09:44:44;2.73;;;1.20;;
45650;SDS011;31365;48.858;8.530;2022-09-27T09:47:25;3.30;;;1.27;;
45650;SDS011;31365;48.858;8.530;2022-09-27T09:50:05;2.23;;;1.10;;
45650;SDS011;31365;48.858;8.530;2022-09-27T09:52:45;2.57;;;1.30;;
45650;SDS011;31365;48.858;8.530;2022-09-27T09:55:22;4.00;;;1.70;;
45650;SDS011;31365;48.858;8.530;2022-09-27T09:57:58;2.77;;;1.70;;
45650;SDS011;31365;48.858;8.530;2022-09-27T10:00:42;3.07;;;1.00;;
45650;SDS011;31365;48.858;8.530;2022-09-27T10:03:14;2.67;;;1.30;;
45650;SDS011;31365;48.858;8.530;2022-09-27T10:05:43;2.07;;;1.20;;
45650;SDS011;31365;48.858;8.530;2022-09-27T10:08:15;2.17;;;1.40;;
45650;SDS011;31365;48.858;8.530;2022-09-27T10:10:58;2.20;;;1.47;;
45650;SDS011;31365;48.858;8.530;2022-09-27T10:13:46;4.30;;;1.20;;
45650;SDS011;31365;48.858;8.530;2022-09-27T10:16:16;2.40;;;1.30;;
45650;SDS011;31365;48.858;8.530;2022-09-27T10:18:47;2.63;;;1.40;;
45650;SDS011;31365;48.858;8.530;2022-09-27T10:21:20;1.10;;;1.00;;
45650;SDS011;31365;48.858;8.530;2022-09-27T10:24:03;2.90;;;1.20;;
45650;SDS011;31365;48.858;8.530;2022-09-27T10:27:02;2.30;;;1.30;;
45650;SDS011;31365;48.858;8.530;2022-09-27T10:29:34;3.47;;;1.30;;
45650;SDS011;31365;48.858;8.530;2022-09-27T10:32:18;5.00;;;3.07;;
45650;SDS011;31365;48.858;8.530;2022-09-27T10:35:20;8.37;;;6.63;;
45650;SDS011;31365;48.858;8.530;2022-09-27T10:38:11;3.93;;;1.60;;
45650;SDS011;31365;48.858;8.530;2022-09-27T10:40:56;4.17;;;2.97;;
45650;SDS011;31365;48.858;8.530;2022-09-27T10:43:45;2.63;;;1.50;;
45650;SDS011;31365;48.858;8.530;2022-09-27T10:46:26;2.07;;;0.80;;
45650;SDS011;31365;48.858;8.530;2022-09-27T10:49:17;2.10;;;1.40;;
45650;SDS011;31365;48.858;8.530;2022-09-27T10:51:52;3.73;;;1.90;;
45650;SDS011;31365;48.858;8.530;2022-09-27T10:54:25;2.10;;;0.87;;
45650;SDS011;31365;48.858;8.530;2022-09-27T10:56:57;2.63;;;1.20;;
45650;SDS011;31365;48.858;8.530;2022-09-27T10:59:33;2.00;;;1.50;;
45650;SDS011;31365;48.858;8.530;2022-09-27T11:02:05;2.23;;;1.20;;
45650;SDS011;31365;48.858;8.530;2022-09-27T11:05:27;1.40;;;0.60;;
45650;SDS011;31365;48.858;8.530;2022-09-27T11:07:59;2.37;;;1.30;;
45650;SDS011;31365;48.858;8.530;2022-09-27T11:11:02;1.90;;;1.27;;
45650;SDS011;31365;48.858;8.530;2022-09-27T11:13:58;10.13;;;2.10;;
45650;SDS011;31365;48.858;8.530;2022-09-27T11:22:47;2.30;;;0.70;;
45650;SDS011;31365;48.858;8.530;2022-09-27T11:35:33;0.77;;;0.70;;
45650;SDS011;31365;48.858;8.530;2022-09-27T11:38:20;1.80;;;0.50;;
45650;SDS011;31365;48.858;8.530;2022-09-27T11:41:19;3.13;;;1.80;;
45650;SDS011;31365;48.858;8.530;2022-09-27T11:44:11;2.17;;;1.10;;
45650;SDS011;31365;48.858;8.530;2022-09-27T11:47:08;0.87;;;0.80;;
45650;SDS011;31365;48.858;8.530;2022-09-27T11:49:50;0.80;;;0.77;;
45650;SDS011;31365;48.858;8.530;2022-09-27T11:52:49;1.73;;;1.63;;
45650;SDS011;31365;48.858;8.530;2022-09-27T11:55:40;4.43;;;1.93;;
45650;SDS011;31365;48.858;8.530;2022-09-27T11:58:24;2.00;;;1.30;;
45650;SDS011;31365;48.858;8.530;2022-09-27T12:01:07;2.40;;;1.60;;
45650;SDS011;31365;48.858;8.530;2022-09-27T12:04:07;3.97;;;1.70;;
45650;SDS011;31365;48.858;8.530;2022-09-27T12:07:15;2.20;;;1.13;;
45650;SDS011;31365;48.858;8.530;2022-09-27T12:09:55;2.90;;;1.20;;
45650;SDS011;31365;48.858;8.530;2022-09-27T12:12:33;1.10;;;0.93;;
45650;SDS011;31365;48.858;8.530;2022-09-27T12:15:11;3.97;;;1.43;;
45650;SDS011;31365;48.858;8.530;2022-09-27T12:17:43;1.73;;;1.07;;
45650;SDS011;31365;48.858;8.530;2022-09-27T12:20:17;4.40;;;1.73;;
45650;SDS011;31365;48.858;8.530;2022-09-27T12:22:52;1.63;;;0.60;;
45650;SDS011;31365;48.858;8.530;2022-09-27T12:25:42;2.33;;;1.37;;
45650;SDS011;31365;48.858;8.530;2022-09-27T12:28:20;2.13;;;1.93;;
45650;SDS011;31365;48.858;8.530;2022-09-27T12:31:02;2.53;;;2.07;;
45650;SDS011;31365;48.858;8.530;2022-09-27T12:33:58;2.40;;;2.20;;
45650;SDS011;31365;48.858;8.530;2022-09-27T12:36:45;1.53;;;1.33;;
45650;SDS011;31365;48.858;8.530;2022-09-27T12:39:20;1.87;;;1.43;;
45650;SDS011;31365;48.858;8.530;2022-09-27T12:42:09;1.47;;;1.13;;
45650;SDS011;31365;48.858;8.530;2022-09-27T12:44:46;2.60;;;1.90;;
45650;SDS011;31365;48.858;8.530;2022-09-27T12:47:37;2.50;;;1.03;;
45650;SDS011;31365;48.858;8.530;2022-09-27T12:50:29;1.43;;;0.80;;
45650;SDS011;31365;48.858;8.530;2022-09-27T12:53:07;0.77;;;0.77;;
45650;SDS011;31365;48.858;8.530;2022-09-27T12:55:52;0.93;;;0.80;;
45650;SDS011;31365;48.858;8.530;2022-09-27T12:58:45;2.93;;;1.17;;
45650;SDS011;31365;48.858;8.530;2022-09-27T13:01:51;1.37;;;0.80;;
45650;SDS011;31365;48.858;8.530;2022-09-27T13:05:01;2.93;;;2.07;;
45650;SDS011;31365;48.858;8.530;2022-09-27T13:08:01;1.07;;;1.00;;
45650;SDS011;31365;48.858;8.530;2022-09-27T13:10:54;0.87;;;0.50;;
45650;SDS011;31365;48.858;8.530;2022-09-27T13:13:34;4.30;;;0.97;;
45650;SDS011;31365;48.858;8.530;2022-09-27T13:16:08;2.57;;;1.27;;
45650;SDS011;31365;48.858;8.530;2022-09-27T13:18:49;0.93;;;0.70;;
45650;SDS011;31365;48.858;8.530;2022-09-27T13:24:41;0.57;;;0.47;;
45650;SDS011;31365;48.858;8.530;2022-09-27T13:27:35;1.50;;;1.40;;
45650;SDS011;31365;48.858;8.530;2022-09-27T13:33:32;0.70;;;0.70;;
45650;SDS011;31365;48.858;8.530;2022-09-27T13:36:23;2.17;;;2.07;;
45650;SDS011;31365;48.858;8.530;2022-09-27T13:39:05;1.53;;;1.40;;
45650;SDS011;31365;48.858;8.530;2022-09-27T13:42:11;2.43;;;1.20;;
45650;SDS011;31365;48.858;8.530;2022-09-27T13:45:09;1.60;;;1.50;;
45650;SDS011;31365;48.858;8.530;2022-09-27T13:47:49;2.80;;;1.60;;
45650;SDS011;31365;48.858;8.530;2022-09-27T13:50:36;1.40;;;1.10;;
45650;SDS011;31365;48.858;8.530;2022-09-27T13:53:16;1.90;;;1.00;;
45650;SDS011;31365;48.858;8.530;2022-09-27T13:55:54;3.17;;;1.10;;
45650;SDS011;31365;48.858;8.530;2022-09-27T13:58:39;3.47;;;1.73;;
45650;SDS011;31365;48.858;8.530;2022-09-27T14:01:42;9.77;;;5.60;;
45650;SDS011;31365;48.858;8.530;2022-09-27T14:04:22;18.97;;;9.43;;
45650;SDS011;31365;48.858;8.530;2022-09-27T14:06:57;5.70;;;4.47;;
45650;SDS011;31365;48.858;8.530;2022-09-27T14:09:29;7.43;;;5.27;;
45650;SDS011;31365;48.858;8.530;2022-09-27T14:12:14;8.13;;;5.33;;
45650;SDS011;31365;48.858;8.530;2022-09-27T14:14:48;3.23;;;2.10;;
45650;SDS011;31365;48.858;8.530;2022-09-27T14:17:21;3.70;;;2.40;;
45650;SDS011;31365;48.858;8.530;2022-09-27T14:19:51;1.30;;;1.20;;
45650;SDS011;31365;48.858;8.530;2022-09-27T14:22:23;1.40;;;1.30;;
45650;SDS011;31365;48.858;8.530;2022-09-27T14:25:11;2.33;;;1.90;;
45650;SDS011;31365;48.858;8.530;2022-09-27T14:27:48;2.70;;;1.03;;
45650;SDS011;31365;48.858;8.530;2022-09-27T14:30:24;2.13;;;0.87;;
45650;SDS011;31365;48.858;8.530;2022-09-27T14:33:29;1.00;;;1.00;;
45650;SDS011;31365;48.858;8.530;2022-09-27T14:36:06;2.77;;;2.20;;
45650;SDS011;31365;48.858;8.530;2022-09-27T14:39:19;2.77;;;1.47;;
45650;SDS011;31365;48.858;8.530;2022-09-27T14:41:50;2.07;;;1.60;;
45650;SDS011;31365;48.858;8.530;2022-09-27T14:44:19;1.83;;;1.40;;
45650;SDS011;31365;48.858;8.530;2022-09-27T14:47:06;1.27;;;0.80;;
45650;SDS011;31365;48.858;8.530;2022-09-27T14:49:38;1.13;;;0.93;;
45650;SDS011;31365;48.858;8.530;2022-09-27T14:52:15;2.53;;;1.07;;
45650;SDS011;31365;48.858;8.530;2022-09-27T14:54:58;1.97;;;1.47;;
45650;SDS011;31365;48.858;8.530;2022-09-27T14:57:29;2.60;;;1.20;;
45650;SDS011;31365;48.858;8.530;2022-09-27T15:00:13;1.67;;;1.57;;
45650;SDS011;31365;48.858;8.530;2022-09-27T15:02:47;1.93;;;1.23;;
45650;SDS011;31365;48.858;8.530;2022-09-27T15:05:20;2.73;;;2.43;;
45650;SDS011;31365;48.858;8.530;2022-09-27T15:07:51;3.03;;;1.70;;
45650;SDS011;31365;48.858;8.530;2022-09-27T15:10:23;1.37;;;1.23;;
45650;SDS011;31365;48.858;8.530;2022-09-27T15:12:57;1.63;;;1.47;;
45650;SDS011;31365;48.858;8.530;2022-09-27T15:15:31;1.87;;;1.20;;
45650;SDS011;31365;48.858;8.530;2022-09-27T15:21:08;0.80;;;0.80;;
45650;SDS011;31365;48.858;8.530;2022-09-27T15:23:40;1.70;;;1.47;;
45650;SDS011;31365;48.858;8.530;2022-09-27T15:26:12;4.67;;;3.47;;
45650;SDS011;31365;48.858;8.530;2022-09-27T15:28:45;14.20;;;8.63;;
45650;SDS011;31365;48.858;8.530;2022-09-27T15:31:15;23.77;;;14.13;;
45650;SDS011;31365;48.858;8.530;2022-09-27T15:33:51;4.30;;;2.40;;
45650;SDS011;31365;48.858;8.530;2022-09-27T15:39:25;1.77;;;1.37;;
45650;SDS011;31365;48.858;8.530;2022-09-27T15:42:06;4.23;;;2.30;;
45650;SDS011;31365;48.858;8.530;2022-09-27T15:44:42;2.73;;;1.33;;
45650;SDS011;31365;48.858;8.530;2022-09-27T15:53:02;5.33;;;2.30;;
45650;SDS011;31365;48.858;8.530;2022-09-27T15:55:33;1.90;;;1.50;;
45650;SDS011;31365;48.858;8.530;2022-09-27T15:58:11;3.70;;;1.47;;
45650;SDS011;31365;48.858;8.530;2022-09-27T16:00:52;3.53;;;2.30;;
45650;SDS011;31365;48.858;8.530;2022-09-27T16:03:23;3.43;;;1.90;;
45650;SDS011;31365;48.858;8.530;2022-09-27T16:05:54;2.53;;;1.23;;
45650;SDS011;31365;48.858;8.530;2022-09-27T16:08:25;2.40;;;1.10;;
45650;SDS011;31365;48.858;8.530;2022-09-27T16:10:54;1.23;;;1.07;;
45650;SDS011;31365;48.858;8.530;2022-09-27T16:13:27;3.13;;;1.10;;
45650;SDS011;31365;48.858;8.530;2022-09-27T16:15:58;3.00;;;0.90;;
45650;SDS011;31365;48.858;8.530;2022-09-27T16:18:29;3.57;;;1.50;;
45650;SDS011;31365;48.858;8.530;2022-09-27T16:20:58;5.77;;;3.50;;
45650;SDS011;31365;48.858;8.530;2022-09-27T16:23:26;4.23;;;1.90;;
45650;SDS011;31365;48.858;8.530;2022-09-27T16:25:55;3.57;;;1.90;;
45650;SDS011;31365;48.858;8.530;2022-09-27T16:28:23;3.10;;;1.10;;
45650;SDS011;31365;48.858;8.530;2022-09-27T16:30:53;1.33;;;1.23;;
45650;SDS011;31365;48.858;8.530;2022-09-27T16:33:21;2.00;;;1.43;;
45650;SDS011;31365;48.858;8.530;2022-09-27T16:35:49;2.70;;;1.23;;
45650;SDS011;31365;48.858;8.530;2022-09-27T16:38:17;4.63;;;1.97;;